createdAt,value
2019-04-28T00:01:54.350Z,11.40
2019-04-28T00:04:24.072Z,11.40
2019-04-28T00:06:53.658Z,11.40
2019-04-28T00:09:23.455Z,11.40
2019-04-28T00:11:53.247Z,11.40
2019-04-28T00:14:23.160Z,11.40
2019-04-28T00:16:52.797Z,11.40
2019-04-28T00:19:24.087Z,11.40
2019-04-28T00:22:04.114Z,11.40
2019-04-28T00:24:34.559Z,11.40
2019-04-28T00:27:05.046Z,11.30
2019-04-28T00:29:40.794Z,11.30
2019-04-28T00:32:07.306Z,11.20
2019-04-28T00:34:41.203Z,11.10
2019-04-28T00:37:12.807Z,11.10
2019-04-28T00:39:42.514Z,11.20
2019-04-28T00:42:12.262Z,11.20
2019-04-28T00:44:43.393Z,11.30
2019-04-28T00:47:14.494Z,11.30
2019-04-28T00:49:48.078Z,11.40
2019-04-28T00:52:19.256Z,11.50
2019-04-28T00:54:49.650Z,11.50
2019-04-28T00:57:21.022Z,11.60
2019-04-28T00:59:57.554Z,11.60
2019-04-28T01:02:23.848Z,11.70
2019-04-28T01:04:54.596Z,11.70
2019-04-28T01:07:24.334Z,11.70
2019-04-28T01:09:54.346Z,11.70
2019-04-28T01:12:23.212Z,11.80
2019-04-28T01:14:54.977Z,11.90
2019-04-28T01:17:26.625Z,12.00
2019-04-28T01:20:00.697Z,12.00
2019-04-28T01:22:30.356Z,12.10
2019-04-28T01:25:00.026Z,12.20
2019-04-28T01:27:32.838Z,12.20
2019-04-28T01:30:09.161Z,12.30
2019-04-28T01:32:37.406Z,12.40
2019-04-28T01:35:07.143Z,12.50
2019-04-28T01:37:36.828Z,12.60
2019-04-28T01:40:07.142Z,12.70
2019-04-28T01:42:36.745Z,12.70
2019-04-28T01:45:07.413Z,12.80
2019-04-28T01:47:37.146Z,12.90
2019-04-28T01:50:07.215Z,13.00
2019-04-28T01:52:36.944Z,13.00
2019-04-28T01:55:07.293Z,13.10
2019-04-28T01:57:36.858Z,13.20
2019-04-28T02:00:22.301Z,13.30
2019-04-28T02:02:44.774Z,13.40
2019-04-28T02:05:15.256Z,13.50
2019-04-28T02:07:44.819Z,13.50
2019-04-28T02:10:14.567Z,13.60
2019-04-28T02:12:44.214Z,13.60
2019-04-28T02:15:13.879Z,13.70
2019-04-28T02:17:43.526Z,13.80
2019-04-28T02:20:15.332Z,13.80
2019-04-28T02:22:46.703Z,13.80
2019-04-28T02:25:16.398Z,13.80
2019-04-28T02:27:45.972Z,13.80
2019-04-28T02:30:15.697Z,13.80
2019-04-28T02:32:45.351Z,13.80
2019-04-28T02:35:15.044Z,13.80
2019-04-28T02:37:44.607Z,13.90
2019-04-28T02:40:14.238Z,13.90
2019-04-28T02:42:43.882Z,14.00
2019-04-28T02:45:16.566Z,14.00
2019-04-28T02:47:46.244Z,13.90
2019-04-28T02:50:26.342Z,14.00
2019-04-28T02:52:57.721Z,14.00
2019-04-28T02:55:27.268Z,14.10
2019-04-28T02:57:57.858Z,14.10
2019-04-28T03:00:27.566Z,14.20
2019-04-28T03:02:57.319Z,14.30
2019-04-28T03:05:27.020Z,14.40
2019-04-28T03:07:56.645Z,14.40
2019-04-28T03:10:26.279Z,14.30
2019-04-28T03:12:56.074Z,14.30
2019-04-28T03:15:25.687Z,14.20
2019-04-28T03:17:55.332Z,14.10
2019-04-28T03:20:25.046Z,14.10
2019-04-28T03:22:55.006Z,14.00
2019-04-28T03:25:30.213Z,14.00
2019-04-28T03:28:06.759Z,13.90
2019-04-28T03:30:44.336Z,13.80
2019-04-28T03:33:25.239Z,13.80
2019-04-28T03:35:53.863Z,13.70
2019-04-28T03:38:23.858Z,13.70
2019-04-28T03:40:53.598Z,13.70
2019-04-28T03:43:23.300Z,13.60
2019-04-28T03:46:03.174Z,13.60
2019-04-28T03:48:33.677Z,13.60
2019-04-28T03:51:02.814Z,13.50
2019-04-28T03:53:32.386Z,13.50
2019-04-28T03:56:01.972Z,13.50
2019-04-28T03:58:31.631Z,13.50
2019-04-28T04:01:03.127Z,13.50
2019-04-28T04:03:32.507Z,13.40
2019-04-28T04:06:02.149Z,13.40
2019-04-28T04:08:31.678Z,13.40
2019-04-28T04:11:02.970Z,13.40
2019-04-28T04:13:34.269Z,13.40
2019-04-28T04:16:17.662Z,13.40
2019-04-28T04:18:52.977Z,13.30
2019-04-28T04:21:21.369Z,13.20
2019-04-28T04:23:51.168Z,13.20
2019-04-28T04:26:21.553Z,13.20
2019-04-28T04:28:51.773Z,13.20
2019-04-28T04:31:21.546Z,13.10
2019-04-28T04:33:51.199Z,13.00
2019-04-28T04:36:21.320Z,12.90
2019-04-28T04:38:51.621Z,12.90
2019-04-28T04:41:21.672Z,13.00
2019-04-28T04:43:52.466Z,13.00
2019-04-28T04:46:23.988Z,13.00
2019-04-28T04:48:53.670Z,12.90
2019-04-28T04:51:23.379Z,12.90
2019-04-28T04:53:53.042Z,12.90
2019-04-28T04:56:22.759Z,13.00
2019-04-28T04:58:52.409Z,13.00
2019-04-28T05:01:23.710Z,13.00
2019-04-28T05:04:07.217Z,13.10
2019-04-28T05:06:42.686Z,13.10
2019-04-28T05:09:12.329Z,13.10
2019-04-28T05:11:41.906Z,13.20
2019-04-28T05:14:12.084Z,13.20
2019-04-28T05:16:41.849Z,13.20
2019-04-28T05:19:12.516Z,13.20
2019-04-28T05:21:42.160Z,13.20
2019-04-28T05:24:20.108Z,13.10
2019-04-28T05:26:51.579Z,13.10
2019-04-28T05:29:26.496Z,13.00
2019-04-28T05:31:54.807Z,13.00
2019-04-28T05:34:24.609Z,13.00
2019-04-28T05:36:54.322Z,13.00
2019-04-28T05:39:23.993Z,13.10
2019-04-28T05:41:53.711Z,13.10
2019-04-28T05:44:23.985Z,13.10
2019-04-28T05:46:53.555Z,13.10
2019-04-28T05:49:27.316Z,13.10
2019-04-28T05:52:09.640Z,13.20
2019-04-28T05:54:55.646Z,13.30
2019-04-28T05:57:30.578Z,13.40
2019-04-28T06:00:10.868Z,13.40
2019-04-28T06:02:54.208Z,13.50
2019-04-28T06:05:13.664Z,13.60
2019-04-28T06:08:01.101Z,13.80
2019-04-28T06:10:30.789Z,14.00
2019-04-28T06:13:00.489Z,14.20
2019-04-28T06:15:29.998Z,14.50
2019-04-28T06:18:00.186Z,14.70
2019-04-28T06:20:30.380Z,14.90
2019-04-28T06:22:59.975Z,15.20
2019-04-28T06:25:29.612Z,15.50
2019-04-28T06:27:59.327Z,15.80
2019-04-28T06:30:29.060Z,16.10
2019-04-28T06:33:07.722Z,16.00
2019-04-28T06:35:29.879Z,15.90
2019-04-28T06:37:59.547Z,15.90
2019-04-28T06:40:29.099Z,15.90
2019-04-28T06:42:58.807Z,16.00
2019-04-28T06:45:29.454Z,16.10
2019-04-28T06:47:59.195Z,16.20
2019-04-28T06:50:33.022Z,16.30
2019-04-28T06:53:03.094Z,16.50
2019-04-28T06:55:35.277Z,16.60
2019-04-28T06:58:04.971Z,16.60
2019-04-28T07:00:34.674Z,16.80
2019-04-28T07:03:16.994Z,17.00
2019-04-28T07:05:40.392Z,17.10
2019-04-28T07:08:10.085Z,17.00
2019-04-28T07:10:39.804Z,16.80
2019-04-28T07:13:09.597Z,16.30
2019-04-28T07:15:39.523Z,15.50
2019-04-28T07:18:15.308Z,14.80
2019-04-28T07:21:01.778Z,14.20
2019-04-28T07:23:34.056Z,13.40
2019-04-28T07:26:11.277Z,12.10
2019-04-28T07:28:42.693Z,11.30
2019-04-28T07:34:37.383Z,10.60
2019-04-28T07:40:10.248Z,10.90
2019-04-28T07:42:45.620Z,11.10
2019-04-28T07:45:18.537Z,11.30
2019-04-28T07:47:49.852Z,11.40
2019-04-28T07:53:28.632Z,11.70
2019-04-28T07:59:27.488Z,11.90
2019-04-28T08:05:46.835Z,12.30
2019-04-28T08:08:20.352Z,12.30
2019-04-28T08:10:52.587Z,12.40
2019-04-28T08:13:23.353Z,12.40
2019-04-28T08:15:54.905Z,12.50
2019-04-28T08:19:21.394Z,12.70
2019-04-28T08:21:07.040Z,13.00
2019-04-28T08:23:46.947Z,13.20
2019-04-28T08:26:12.780Z,13.30
2019-04-28T08:28:46.772Z,13.50
2019-04-28T08:31:21.831Z,13.60
2019-04-28T08:34:02.570Z,13.70
2019-04-28T08:36:27.312Z,13.80
2019-04-28T08:39:00.824Z,13.80
2019-04-28T08:41:32.144Z,13.90
2019-04-28T08:44:04.746Z,13.90
2019-04-28T08:46:37.014Z,13.90
2019-04-28T08:49:14.479Z,14.00
2019-04-28T08:52:03.661Z,13.90
2019-04-28T08:54:35.033Z,13.90
2019-04-28T08:57:07.644Z,13.80
2019-04-28T08:59:37.417Z,13.80
2019-04-28T09:02:09.358Z,13.70
2019-04-28T09:04:41.623Z,13.70
2019-04-28T09:07:14.568Z,13.60
2019-04-28T09:09:43.004Z,13.50
2019-04-28T09:12:14.215Z,13.50
2019-04-28T09:14:49.896Z,13.60
2019-04-28T09:17:19.695Z,13.90
2019-04-28T09:19:51.927Z,14.20
2019-04-28T09:22:21.690Z,14.30
2019-04-28T09:24:51.481Z,14.40
2019-04-28T09:27:22.190Z,14.40
2019-04-28T09:29:52.065Z,14.50
2019-04-28T09:32:21.867Z,14.50
2019-04-28T09:34:53.311Z,14.50
2019-04-28T09:37:23.123Z,14.50
2019-04-28T09:39:53.665Z,14.50
2019-04-28T09:42:30.765Z,14.60
2019-04-28T09:45:18.671Z,14.70
2019-04-28T09:47:48.606Z,15.00
2019-04-28T09:50:17.598Z,15.20
2019-04-28T09:52:48.744Z,15.30
2019-04-28T09:55:19.643Z,15.30
2019-04-28T09:57:49.407Z,15.30
2019-04-28T10:00:20.167Z,15.30
2019-04-28T10:02:49.908Z,15.50
2019-04-28T10:05:20.605Z,15.60
2019-04-28T10:07:50.362Z,15.70
2019-04-28T10:10:20.199Z,15.70
2019-04-28T10:12:49.051Z,15.70
2019-04-28T10:15:18.717Z,15.80
2019-04-28T10:17:48.435Z,15.80
2019-04-28T10:20:18.568Z,15.80
2019-04-28T10:22:48.364Z,15.60
2019-04-28T10:25:20.988Z,15.60
2019-04-28T10:27:49.534Z,15.70
2019-04-28T10:30:19.375Z,15.70
2019-04-28T10:32:49.108Z,15.80
2019-04-28T10:35:17.995Z,15.90
2019-04-28T10:37:47.702Z,16.00
2019-04-28T10:40:22.095Z,16.10
2019-04-28T10:42:51.807Z,16.20
2019-04-28T10:45:23.178Z,16.40
2019-04-28T10:47:52.967Z,16.50
2019-04-28T10:50:22.648Z,16.70
2019-04-28T10:52:55.264Z,16.90
2019-04-28T10:55:25.140Z,17.10
2019-04-28T10:57:54.703Z,17.20
2019-04-28T11:00:27.639Z,17.30
2019-04-28T11:02:57.400Z,17.50
2019-04-28T11:05:28.724Z,17.80
2019-04-28T11:07:58.507Z,18.00
2019-04-28T11:10:27.464Z,18.20
2019-04-28T11:12:57.100Z,18.40
2019-04-28T11:15:28.455Z,18.40
2019-04-28T11:17:58.098Z,18.50
2019-04-28T11:20:28.024Z,18.60
2019-04-28T11:22:56.894Z,18.70
2019-04-28T11:25:26.555Z,18.70
2019-04-28T11:27:56.227Z,18.80
2019-04-28T11:30:28.575Z,18.90
2019-04-28T11:33:16.535Z,19.00
2019-04-28T11:35:47.714Z,19.20
2019-04-28T11:38:17.351Z,19.30
2019-04-28T11:40:47.153Z,19.40
2019-04-28T11:43:16.758Z,19.50
2019-04-28T11:45:46.425Z,19.70
2019-04-28T11:48:16.079Z,19.80
2019-04-28T11:50:46.899Z,19.90
2019-04-28T11:53:15.767Z,20.10
2019-04-28T11:55:45.646Z,20.20
2019-04-28T11:58:15.332Z,20.30
2019-04-28T12:00:44.220Z,20.30
2019-04-28T12:03:13.931Z,20.30
2019-04-28T12:05:44.430Z,20.40
2019-04-28T12:08:14.134Z,20.40
2019-04-28T12:10:52.557Z,20.50
2019-04-28T12:13:31.707Z,20.70
2019-04-28T12:16:11.647Z,20.90
2019-04-28T12:18:59.337Z,21.00
2019-04-28T12:21:29.030Z,21.20
2019-04-28T12:23:58.031Z,21.50
2019-04-28T12:26:27.762Z,21.70
2019-04-28T12:28:56.641Z,21.80
2019-04-28T12:31:26.367Z,21.80
2019-04-28T12:33:55.980Z,21.90
2019-04-28T12:36:25.652Z,21.90
2019-04-28T12:38:55.403Z,21.90
2019-04-28T12:41:24.291Z,21.80
2019-04-28T12:43:53.919Z,21.60
2019-04-28T12:46:23.560Z,21.30
2019-04-28T12:48:54.076Z,21.20
2019-04-28T12:51:23.832Z,21.20
2019-04-28T12:53:54.370Z,21.40
2019-04-28T12:56:23.975Z,21.50
2019-04-28T12:58:54.541Z,21.50
2019-04-28T13:01:25.646Z,21.50
2019-04-28T13:04:13.027Z,21.50
2019-04-28T13:06:44.374Z,21.30
2019-04-28T13:09:14.556Z,21.20
2019-04-28T13:11:44.384Z,21.10
2019-04-28T13:14:14.037Z,21.00
2019-04-28T13:16:42.967Z,21.20
2019-04-28T13:19:12.603Z,21.50
2019-04-28T13:21:41.549Z,21.60
2019-04-28T13:24:11.186Z,21.50
2019-04-28T13:26:40.844Z,21.10
2019-04-28T13:29:10.340Z,20.60
2019-04-28T13:31:40.052Z,20.20
2019-04-28T13:34:11.317Z,19.90
2019-04-28T13:36:41.090Z,19.70
2019-04-28T13:39:30.022Z,19.70
2019-04-28T13:41:59.783Z,19.80
2019-04-28T13:44:46.560Z,19.90
2019-04-28T13:47:16.174Z,19.90
2019-04-28T13:49:59.202Z,19.80
2019-04-28T13:52:28.918Z,19.60
2019-04-28T13:55:00.240Z,19.40
2019-04-28T13:57:29.866Z,19.10
2019-04-28T14:00:01.110Z,19.10
2019-04-28T14:02:35.643Z,19.00
2019-04-28T14:05:22.872Z,19.20
2019-04-28T14:07:52.569Z,19.60
2019-04-28T14:10:22.193Z,20.30
2019-04-28T14:12:51.910Z,20.90
2019-04-28T14:15:21.568Z,21.30
2019-04-28T14:17:50.480Z,21.30
2019-04-28T14:20:20.194Z,21.00
2019-04-28T14:22:49.051Z,20.90
2019-04-28T14:25:18.699Z,20.90
2019-04-28T14:27:47.549Z,21.00
2019-04-28T14:30:18.276Z,20.90
2019-04-28T14:32:47.984Z,20.90
2019-04-28T14:35:17.507Z,20.80
2019-04-28T14:37:47.258Z,20.70
2019-04-28T14:40:17.255Z,20.90
2019-04-28T14:42:46.032Z,21.20
2019-04-28T14:45:16.024Z,21.70
2019-04-28T14:47:45.831Z,22.10
2019-04-28T14:50:14.898Z,22.60
2019-04-28T14:52:44.359Z,23.00
2019-04-28T14:55:13.262Z,23.40
2019-04-28T14:57:42.842Z,24.00
2019-04-28T15:00:13.515Z,24.90
2019-04-28T15:02:47.823Z,26.40
2019-04-28T15:05:21.739Z,28.60
2019-04-28T15:08:09.222Z,31.50
2019-04-28T15:10:49.626Z,32.70
2019-04-28T15:13:20.330Z,33.60
2019-04-28T15:15:50.040Z,33.80
2019-04-28T15:18:20.943Z,34.70
2019-04-28T15:20:50.687Z,35.30
2019-04-28T15:23:21.400Z,36.00
2019-04-28T15:25:50.903Z,36.80
2019-04-28T15:28:20.703Z,36.10
2019-04-28T15:30:50.375Z,36.70
2019-04-28T15:33:20.151Z,37.70
2019-04-28T15:35:49.815Z,37.90
2019-04-28T15:38:32.304Z,37.20
2019-04-28T15:41:01.991Z,36.50
2019-04-28T15:43:34.549Z,35.40
2019-04-28T15:46:04.899Z,34.00
2019-04-28T15:48:34.612Z,31.90
2019-04-28T15:51:05.796Z,30.00
2019-04-28T15:53:36.732Z,29.60
2019-04-28T15:56:13.807Z,29.50
2019-04-28T15:58:43.463Z,29.10
2019-04-28T16:01:13.161Z,28.30
2019-04-28T16:03:43.283Z,27.00
2019-04-28T16:06:13.003Z,25.80
2019-04-28T16:08:42.780Z,24.80
2019-04-28T16:11:12.503Z,24.20
2019-04-28T16:13:41.326Z,24.40
2019-04-28T16:16:10.867Z,24.20
2019-04-28T16:18:40.472Z,23.90
2019-04-28T16:21:09.256Z,23.40
2019-04-28T16:23:38.876Z,22.90
2019-04-28T16:26:07.686Z,22.50
2019-04-28T16:28:37.236Z,22.10
2019-04-28T16:31:06.141Z,21.60
2019-04-28T16:33:35.787Z,21.30
2019-04-28T16:36:05.476Z,21.00
2019-04-28T16:38:34.288Z,20.60
2019-04-28T16:41:04.312Z,20.20
2019-04-28T16:43:37.315Z,20.00
2019-04-28T16:46:07.090Z,19.70
2019-04-28T16:48:35.961Z,19.50
2019-04-28T16:51:06.526Z,19.20
2019-04-28T16:53:36.126Z,18.90
2019-04-28T16:56:13.301Z,18.60
2019-04-28T16:58:44.530Z,18.40
2019-04-28T17:01:21.929Z,18.30
2019-04-28T17:03:51.756Z,18.10
2019-04-28T17:06:20.609Z,18.00
2019-04-28T17:08:50.174Z,17.90
2019-04-28T17:11:19.876Z,17.80
2019-04-28T17:13:49.552Z,17.90
2019-04-28T17:16:19.333Z,17.90
2019-04-28T17:18:48.988Z,18.10
2019-04-28T17:21:18.723Z,17.90
2019-04-28T17:23:48.350Z,17.70
2019-04-28T17:26:18.068Z,17.50
2019-04-28T17:28:47.798Z,17.30
2019-04-28T17:31:17.435Z,17.10
2019-04-28T17:33:47.087Z,16.80
2019-04-28T17:36:16.802Z,16.60
2019-04-28T17:38:46.578Z,16.40
2019-04-28T17:41:16.283Z,16.20
2019-04-28T17:43:45.927Z,16.00
2019-04-28T17:46:15.680Z,15.80
2019-04-28T17:48:58.892Z,15.60
2019-04-28T17:51:28.599Z,15.40
2019-04-28T17:53:58.322Z,15.10
2019-04-28T17:56:27.959Z,15.00
2019-04-28T17:58:57.558Z,14.80
2019-04-28T18:01:37.577Z,14.70
2019-04-28T18:04:08.965Z,14.70
2019-04-28T18:06:48.962Z,14.60
2019-04-28T18:09:19.719Z,14.60
2019-04-28T18:11:49.515Z,14.40
2019-04-28T18:14:19.243Z,14.40
2019-04-28T18:16:56.523Z,14.40
2019-04-28T18:19:27.051Z,14.30
2019-04-28T18:21:56.687Z,14.20
2019-04-28T18:24:26.403Z,14.10
2019-04-28T18:26:56.062Z,14.00
2019-04-28T18:29:25.697Z,13.90
2019-04-28T18:31:56.993Z,13.80
2019-04-28T18:34:37.443Z,13.70
2019-04-28T18:37:20.898Z,13.70
2019-04-28T18:40:03.999Z,13.70
2019-04-28T18:42:38.462Z,13.60
2019-04-28T18:45:09.375Z,13.50
2019-04-28T18:47:38.955Z,13.40
2019-04-28T18:50:08.749Z,13.40
2019-04-28T18:52:38.562Z,13.40
2019-04-28T18:55:08.335Z,13.30
2019-04-28T18:57:37.939Z,13.40
2019-04-28T19:00:08.113Z,13.30
2019-04-28T19:02:39.949Z,13.30
2019-04-28T19:05:10.586Z,13.30
2019-04-28T19:10:40.237Z,13.20
2019-04-28T19:13:22.926Z,13.20
2019-04-28T19:15:54.309Z,13.10
2019-04-28T19:18:34.375Z,13.10
2019-04-28T19:21:04.304Z,13.10
2019-04-28T19:23:33.238Z,13.00
2019-04-28T19:26:02.932Z,12.90
2019-04-28T19:28:32.644Z,12.80
2019-04-28T19:31:02.280Z,12.80
2019-04-28T19:33:32.024Z,12.70
2019-04-28T19:36:01.724Z,12.70
2019-04-28T19:38:31.363Z,12.80
2019-04-28T19:41:00.994Z,12.70
2019-04-28T19:43:30.808Z,12.80
2019-04-28T19:46:02.067Z,12.80
2019-04-28T19:48:31.795Z,12.70
2019-04-28T19:51:01.620Z,12.70
2019-04-28T19:53:32.491Z,12.70
2019-04-28T19:56:14.395Z,12.70
2019-04-28T19:58:45.935Z,12.70
2019-04-28T20:01:17.248Z,12.80
2019-04-28T20:03:46.971Z,12.80
2019-04-28T20:06:16.626Z,12.60
2019-04-28T20:08:46.358Z,12.60
2019-04-28T20:11:16.150Z,12.50
2019-04-28T20:13:46.000Z,12.50
2019-04-28T20:16:15.774Z,12.40
2019-04-28T20:18:48.622Z,12.40
2019-04-28T20:21:16.799Z,12.40
2019-04-28T20:23:46.516Z,12.40
2019-04-28T20:26:19.501Z,12.40
2019-04-28T20:28:50.970Z,12.50
2019-04-28T20:31:20.747Z,12.50
2019-04-28T20:33:50.394Z,12.50
2019-04-28T20:36:27.258Z,12.50
2019-04-28T20:38:58.615Z,12.50
2019-04-28T20:44:30.184Z,12.50
2019-04-28T20:46:59.948Z,12.50
2019-04-28T20:49:32.358Z,12.50
2019-04-28T20:52:09.377Z,12.50
2019-04-28T20:54:41.982Z,12.60
2019-04-28T20:57:13.518Z,12.60
2019-04-28T20:59:50.949Z,12.70
2019-04-28T21:02:20.703Z,12.80
2019-04-28T21:04:51.194Z,12.80
2019-04-28T21:07:22.273Z,12.80
2019-04-28T21:09:56.362Z,12.80
2019-04-28T21:12:31.444Z,12.80
2019-04-28T21:15:05.152Z,12.80
2019-04-28T21:17:35.048Z,12.70
2019-04-28T21:20:17.589Z,12.60
2019-04-28T21:22:54.857Z,12.50
2019-04-28T21:25:26.825Z,12.40
2019-04-28T21:27:58.960Z,12.30
2019-04-28T21:30:29.281Z,12.20
2019-04-28T21:33:03.465Z,12.00
2019-04-28T21:35:36.080Z,11.90
2019-04-28T21:38:10.237Z,11.80
2019-04-28T21:40:41.314Z,11.70
2019-04-28T21:43:13.114Z,11.60
2019-04-28T21:45:59.463Z,11.40
2019-04-28T21:48:33.217Z,11.10
2019-04-28T21:51:02.759Z,10.80
2019-04-28T21:53:32.325Z,10.60
2019-04-28T21:56:03.059Z,10.40
2019-04-28T21:58:33.712Z,10.40
2019-04-28T22:01:04.273Z,10.40
2019-04-28T22:03:36.738Z,10.30
2019-04-28T22:06:06.470Z,10.30
2019-04-28T22:08:36.171Z,10.20
2019-04-28T22:11:05.792Z,10.20
2019-04-28T22:13:35.555Z,10.20
2019-04-28T22:16:05.481Z,10.20
2019-04-28T22:18:36.711Z,10.20
2019-04-28T22:21:06.314Z,10.20
2019-04-28T22:23:40.206Z,10.20
2019-04-28T22:26:11.455Z,10.20
2019-04-28T22:28:42.609Z,10.20
2019-04-28T22:31:13.426Z,10.10
2019-04-28T22:33:43.135Z,10.10
2019-04-28T22:36:12.768Z,10.10
2019-04-28T22:38:42.316Z,10.10
2019-04-28T22:41:11.946Z,10.00
2019-04-28T22:43:41.518Z,10.00
2019-04-28T22:46:11.080Z,10.00
2019-04-28T22:48:40.696Z,9.90
2019-04-28T22:51:10.371Z,9.80
2019-04-28T22:53:40.081Z,9.80
2019-04-28T22:56:11.329Z,9.70
2019-04-28T22:58:45.140Z,9.70
2019-04-28T23:01:24.989Z,9.70
2019-04-28T23:04:08.198Z,9.60
2019-04-28T23:06:38.914Z,9.50
2019-04-28T23:09:11.399Z,9.50
2019-04-28T23:11:43.779Z,9.50
2019-04-28T23:14:13.375Z,9.50
2019-04-28T23:16:43.072Z,9.50
2019-04-28T23:19:14.382Z,9.50
2019-04-28T23:21:48.364Z,9.50
2019-04-28T23:24:17.941Z,9.60
2019-04-28T23:26:47.620Z,9.60
2019-04-28T23:29:17.298Z,9.60
2019-04-28T23:31:47.020Z,9.60
2019-04-28T23:34:18.191Z,9.60
2019-04-28T23:36:47.953Z,9.50
2019-04-28T23:39:20.118Z,9.50
2019-04-28T23:41:57.268Z,9.60
2019-04-28T23:44:27.962Z,9.60
2019-04-28T23:46:58.935Z,9.50
2019-04-28T23:49:30.113Z,9.50
2019-04-28T23:52:04.313Z,9.40
2019-04-28T23:54:35.707Z,9.30
2019-04-28T23:57:07.400Z,9.30
2019-04-28T23:59:38.476Z,9.30
